• Join FlightAware (Why Join?)
  • Login
  • US Flag 
12:55AM EDT


 

Airport Tracker/Info


-or-


 

Live Flight TrackerFlight Track Log ✈ EJA975 ✈ 30-Jun-2013 ✈ KBFI - KICT

Flight Track Log - Related Links

Times and Time Zones

All times are in EDT time to prevent confusion due to time zone crossing. See the EJA975 flight status page for this flight to view local times or setup timezone preferences in your user account.

Time Position Orientation Groundspeed Altitude Reporting Facility
EDT Latitude Longitude Course Direction KTS MPH feet Rate Location/Type
12:06PM 47.5575 -122.3278 328° Northwest 188 216 1,600  Level Seattle Center
12:07PM 47.6031 -122.3706 328° Northwest 195 224 5,100 3,540 Climbing Seattle Center
12:08PM 47.6422 -122.4525 305° West 230 265 8,900 1,860 Climbing Seattle Center
12:09PM 47.6931 -122.4206 23° Northeast 243 280 9,000 240 Climbing Seattle Center
12:10PM 47.7314 -122.3156 61° Northeast 303 349 9,400 1,560 Climbing Seattle Center
12:12PM 47.6425 -122.0717 118° Southeast 361 415 13,800 2,100 Climbing Seattle Center
12:13PM 47.5681 -121.9453 131° Southeast 378 435 15,900 1,860 Climbing Seattle Center
12:14PM 47.5272 -121.7900 111° Southeast 404 465 17,700 1,560 Climbing Seattle Center
12:15PM 47.4939 -121.6586 111° Southeast 408 470 19,100 1,560 Climbing Seattle Center
12:16PM 47.4464 -121.4678 110° East 418 481 20,900 1,440 Climbing Seattle Center
12:17PM 47.4050 -121.3042 110° East 428 493 22,100 1,200 Climbing Seattle Center
12:18PM 47.3628 -121.1364 110° East 439 505 23,400 1,260 Climbing Seattle Center
12:19PM 47.3183 -120.9647 111° Southeast 452 520 24,700 1,140 Climbing Seattle Center
12:20PM 47.2744 -120.7931 111° Southeast 463 533 25,800 1,080 Climbing Seattle Center
12:22PM 47.1883 -120.4614 111° Southeast 485 558 27,600 1,020 Climbing Salt Lake Center
12:23PM 47.1381 -120.2700 111° Southeast 496 571 28,600 960 Climbing Salt Lake Center
12:24PM 47.0869 -120.0775 111° Southeast 505 581 29,700 1,080 Climbing Salt Lake Center
12:25PM 47.0350 -119.8831 111° Southeast 511 588 30,900 1,440 Climbing Salt Lake Center
12:26PM 46.9828 -119.6897 112° Southeast 513 590 32,700 1,740 Climbing Salt Lake Center
12:27PM 46.9303 -119.4981 112° Southeast 511 588 34,500 1,980 Climbing Salt Lake Center
12:28PM 46.8692 -119.2703 111° Southeast 508 585 36,800 1,980 Climbing Salt Lake Center
12:29PM 46.8172 -119.0833 112° Southeast 502 578 38,600 1,740 Climbing Salt Lake Center
12:30PM 46.7658 -118.8992 112° Southeast 497 572 40,500 1,140 Climbing Salt Lake Center
12:31PM 46.7133 -118.7153 113° Southeast 494 568 41,000 240 Climbing Salt Lake Center
12:32PM 46.6581 -118.5206 112° Southeast 516 594 41,000  Level Salt Lake Center
12:33PM 46.5892 -118.2831 113° Southeast 533 613 41,000  Level Salt Lake Center
12:34PM 46.5317 -118.0828 113° Southeast 540 621 41,000  Level Salt Lake Center
12:35PM 46.4625 -117.8439 113° Southeast 540 621 41,000  Level Seattle Center
12:36PM 46.4042 -117.6447 113° Southeast 541 623 41,000  Level Seattle Center
12:37PM 46.3450 -117.4472 113° Southeast 540 621 41,000  Level Seattle Center
12:38PM 46.2847 -117.2483 114° Southeast 542 624 41,000  Level Seattle Center
12:39PM 46.2244 -117.0506 114° Southeast 541 623 41,000  Level Seattle Center
12:40PM 46.1647 -116.8481 113° Southeast 548 631 41,000  Level Seattle Center
12:41PM 46.0928 -116.6097 113° Southeast 545 627 41,000  Level Seattle Center
12:42PM 46.0322 -116.4128 114° Southeast 542 624 41,000  Level Seattle Center
12:43PM 45.9700 -116.2167 114° Southeast 542 624 41,000  Level Seattle Center
12:44PM 45.9069 -116.0139 114° Southeast 542 624 41,000  Level Salt Lake Center
12:45PM 45.8478 -115.8247 114° Southeast 544 626 41,000  Level Salt Lake Center
12:46PM 45.7875 -115.6372 115° Southeast 542 624 41,000  Level Salt Lake Center
12:48PM 45.7167 -115.4144 114° Southeast 545 627 41,000  Level Salt Lake Center
12:49PM 45.6558 -115.2267 115° Southeast 544 626 41,000  Level Salt Lake Center
12:50PM 45.5847 -115.0075 115° Southeast 544 626 41,000  Level Salt Lake Center
12:51PM 45.5219 -114.8186 115° Southeast 546 628 41,000  Level Salt Lake Center
12:52PM 45.4506 -114.5992 115° Southeast 547 629 41,000  Level Salt Lake Center
12:53PM 45.3881 -114.4122 115° Southeast 546 628 41,000  Level Salt Lake Center
12:54PM 45.3150 -114.1936 115° Southeast 547 629 41,000  Level Salt Lake Center
12:56PM 45.1872 -113.8200 116° Southeast 544 626 41,000  Level Seattle Center
12:57PM 45.1108 -113.5983 116° Southeast 550 633 41,000  Level Salt Lake Center
12:58PM 45.0478 -113.4131 116° Southeast 549 632 41,000  Level Salt Lake Center
12:59PM 44.9717 -113.1978 116° Southeast 549 632 41,000  Level Salt Lake Center
01:00PM 44.9078 -113.0136 116° Southeast 547 629 41,000  Level Salt Lake Center
01:01PM 44.8317 -112.8003 117° Southeast 545 627 41,000  Level Salt Lake Center
01:02PM 44.7661 -112.6181 117° Southeast 546 628 41,000  Level Salt Lake Center
01:03PM 44.6914 -112.4058 116° Southeast 543 625 41,000  Level Salt Lake Center
01:04PM 44.6253 -112.2264 117° Southeast 542 624 41,000  Level Salt Lake Center
01:05PM 44.5494 -112.0161 117° Southeast 543 625 41,000  Level Salt Lake Center
01:06PM 44.4839 -111.8369 117° Southeast 544 626 41,000  Level Salt Lake Center
01:07PM 44.4069 -111.6308 118° Southeast 543 625 41,000  Level Salt Lake Center
01:08PM 44.3417 -111.4536 117° Southeast 546 628 41,000  Level Salt Lake Center
01:09PM 44.2644 -111.2464 117° Southeast 545 627 41,000  Level Salt Lake Center
01:10PM 44.1969 -111.0686 118° Southeast 545 627 41,000  Level Salt Lake Center
01:11PM 44.1181 -110.8592 118° Southeast 549 632 41,000  Level Salt Lake Center
01:12PM 44.0494 -110.6808 118° Southeast 549 632 41,000  Level Salt Lake Center
01:14PM 43.9008 -110.2911 118° Southeast 553 636 41,000  Level Salt Lake Center
01:15PM 43.8194 -110.0836 118° Southeast 550 633 41,000  Level Salt Lake Center
01:16PM 43.7500 -109.9056 118° Southeast 549 632 41,000  Level Salt Lake Center
01:17PM 43.6669 -109.6994 119° Southeast 549 632 41,000  Level Salt Lake Center
01:19PM 43.5964 -109.5222 119° Southeast 550 633 41,000  Level Salt Lake Center
01:20PM 43.5133 -109.3153 119° Southeast 551 634 41,000  Level Salt Lake Center
01:21PM 43.4394 -109.1322 119° Southeast 551 634 41,000  Level Salt Lake Center
01:22PM 43.3675 -108.9569 119° Southeast 550 633 41,000  Level Salt Lake Center
01:23PM 43.2839 -108.7503 119° Southeast 553 636 41,000  Level Salt Lake Center
01:24PM 43.2114 -108.5753 120° Southeast 551 634 41,000  Level Salt Lake Center
01:25PM 43.1275 -108.3697 119° Southeast 553 636 41,000  Level Salt Lake Center
01:26PM 43.0544 -108.1956 120° Southeast 552 635 41,000  Level Salt Lake Center
01:27PM 42.9692 -107.9911 120° Southeast 553 636 41,000  Level Salt Lake Center
01:28PM 42.8953 -107.8167 120° Southeast 555 639 41,000  Level Salt Lake Center
01:29PM 42.8214 -107.6419 120° Southeast 554 638 41,000  Level Salt Lake Center
01:30PM 42.7347 -107.4400 120° Southeast 553 636 41,000  Level Salt Lake Center
01:31PM 42.6603 -107.2653 120° Southeast 556 640 41,000  Level Salt Lake Center
01:32PM 42.5947 -107.1175 121° Southeast 559 643 41,000  Level Denver Center
01:33PM 42.5075 -106.9172 121° Southeast 555 639 41,000  Level Denver Center
01:34PM 42.4283 -106.7367 121° Southeast 557 641 41,000  Level Denver Center
01:35PM 42.3422 -106.5433 121° Southeast 556 640 41,000  Level Denver Center
01:37PM 42.1864 -106.1933 121° Southeast 558 642 41,000  Level Denver Center
01:38PM 42.0972 -105.9933 121° Southeast 560 644 41,000  Level Denver Center
01:39PM 42.0189 -105.8222 122° Southeast 562 647 41,000  Level Denver Center
01:40PM 41.9289 -105.6244 121° Southeast 559 643 41,000  Level Denver Center
01:41PM 41.8508 -105.4544 122° Southeast 561 646 41,000  Level Denver Center
01:42PM 41.7869 -105.3136 121° Southeast 558 642 41,000  Level Denver Center
01:43PM 41.6814 -105.0886 122° Southeast 561 646 41,000  Level Denver Center
01:44PM 41.5906 -104.8914 122° Southeast 559 643 41,000  Level Denver Center
01:45PM 41.5103 -104.7219 122° Southeast 564 649 41,000  Level Denver Center
01:46PM 41.4189 -104.5278 122° Southeast 561 646 41,000  Level Denver Center
01:47PM 41.3397 -104.3606 122° Southeast 560 644 41,000  Level Denver Center
01:48PM 41.2461 -104.1647 122° Southeast 563 648 41,000  Level Denver Center
01:49PM 41.1656 -103.9978 123° Southeast 561 646 41,000  Level Denver Center
01:50PM 41.0711 -103.8019 123° Southeast 565 650 41,000  Level Denver Center
01:51PM 40.9900 -103.6342 123° Southeast 566 651 41,000  Level Denver Center
01:52PM 40.8939 -103.4397 123° Southeast 567 652 41,000  Level Denver Center
01:53PM 40.8108 -103.2731 123° Southeast 567 652 41,000  Level Denver Center
01:54PM 40.7156 -103.0775 123° Southeast 568 654 41,000  Level Denver Center
01:55PM 40.6386 -102.9214 123° Southeast 566 651 41,000  Level Denver Center
01:58PM 40.4578 -102.5644 124° Southeast 566 651 41,000  Level Denver Center
01:59PM 40.3603 -102.3717 124° Southeast 569 655 41,000  Level Denver Center
02:00PM 40.2775 -102.2069 123° Southeast 567 652 41,000  Level Denver Center
02:01PM 40.1794 -102.0167 124° Southeast 567 652 41,000  Level Denver Center
02:02PM 40.0967 -101.8561 124° Southeast 561 646 41,000  Level Denver Center
02:03PM 39.9997 -101.6683 124° Southeast 560 644 41,000  Level Denver Center
02:04PM 39.9167 -101.5075 124° Southeast 560 644 41,000  Level Denver Center
02:05PM 39.8044 -101.2950 124° Southeast 560 644 41,000  Level Denver Center
02:06PM 39.7067 -101.1089 124° Southeast 561 646 41,000  Level Denver Center
02:07PM 39.6358 -100.9753 125° Southeast 563 648 41,000  Level Denver Center
02:08PM 39.5239 -100.7631 124° Southeast 561 646 41,000  Level Denver Center
02:09PM 39.4389 -100.6058 125° Southeast 560 644 41,000  Level Denver Center
02:10PM 39.3394 -100.4219 125° Southeast 559 643 41,000  Level Denver Center
02:11PM 39.2533 -100.2614 125° Southeast 565 650 41,000  Level Denver Center
02:13PM 39.0667 -99.9189 125° Southeast 569 655 41,000  Level Kansas City Center
02:14PM 38.9806 -99.7628 125° Southeast 563 648 41,000  Level Kansas City Center
02:15PM 38.8794 -99.5792 125° Southeast 562 647 41,000 -540 Level Kansas City Center
02:16PM 38.7953 -99.4289 126° Southeast 556 640 40,000 -1,440 Descending Kansas City Center
02:17PM 38.7078 -99.2725 126° Southeast 542 624 38,100 -2,220 Descending Kansas City Center
02:18PM 38.6175 -99.1122 126° Southeast 552 635 35,500 -3,120 Descending Kansas City Center
02:19PM 38.5064 -98.9144 126° Southeast 568 654 31,700 -3,480 Descending Kansas City Center
02:20PM 38.4122 -98.7461 125° Southeast 582 670 28,400 -3,120 Descending Kansas City Center
02:22PM 38.3203 -98.5856 126° Southeast 566 651 25,300 -2,640 Descending Kansas City Center
02:23PM 38.2331 -98.4336 126° Southeast 538 619 23,000 -1,320 Descending Kansas City Center
02:23PM 38.1603 -98.3150 128° Southeast 519 597 23,000 -120 Level Kansas City Center
02:24PM 38.0778 -98.1675 125° Southeast 512 589 22,800 -1,920 Descending Kansas City Center
02:25PM 37.9953 -98.0231 126° Southeast 501 577 19,100 -3,720 Descending Kansas City Center
02:26PM 37.9181 -97.8911 127° Southeast 470 541 15,400 -3,660 Descending Kansas City Center
02:27PM 37.8408 -97.7622 127° Southeast 409 471 11,800 -2,760 Descending Kansas City Center
02:28PM 37.7758 -97.6769 134° Southeast 305 351 9,900 -2,580 Descending Kansas City Center
02:29PM 37.7061 -97.6267 150° Southeast 278 320 6,600 -2,880 Descending Kansas City Center
02:30PM 37.6356 -97.5925 159° South 269 310 4,200 -1,800 Descending Kansas City Center
02:31PM 37.5692 -97.5575 157° South 241 277 3,000 -600 Descending Kansas City Center
02:32PM 37.5372 -97.5097 130° Southeast 201 231 3,000  Level Kansas City Center
02:33PM 37.5481 -97.4833 63° Northeast 221 254 3,000 -240 Level Kansas City Center
02:33PM 37.5642 -97.4633 45° Northeast 118 136 2,800 -420 Descending Kansas City Center
02:34PM 37.5742 -97.4583 22° Northeast 160 184 2,600 -540 Descending Kansas City Center
02:34PM 37.5922 -97.4511 18° North 96 110 2,300 -540 Descending Kansas City Center
02:35PM 37.6031 -97.4458 21° North 125 144 2,100 -480 Descending Kansas City Center
02:36PM 37.6328 -97.4311 21° North 117 135 1,600 -540 Descending Kansas City Center